Time;durP1;ratioP1;P1;durP2;ratioP2;P2;SDS_P1;SDS_P2;PMS_P1;PMS_P2;Temp;Humidity;BMP_temperature;BMP_pressure;BME280_temperature;BME280_humidity;BME280_pressure;Samples;Min_cycle;Max_cycle;Signal;HPM_P1;HPM_P2
2021/04/23 00:01:52;;;;;;;7.78;5.32;;;4.50;69.90;;;;;;6224703;28;20077;-77
2021/04/23 00:04:53;;;;;;;7.88;3.72;;;4.50;70.20;;;;;;6225004;28;20073;-77
2021/04/23 00:07:54;;;;;;;7.65;5.22;;;4.40;70.40;;;;;;6224513;28;20123;-77
2021/04/23 00:10:57;;;;;;;10.50;4.20;;;4.30;71.40;;;;;;6225516;28;20074;-77
2021/04/23 00:13:59;;;;;;;6.35;3.85;;;4.20;71.10;;;;;;6224478;28;20125;-77
2021/04/23 00:17:00;;;;;;;6.93;4.22;;;4.20;71.40;;;;;;6224636;28;20129;-77
2021/04/23 00:20:05;;;;;;;20.73;4.65;;;4.20;71.70;;;;;;6223801;28;20141;-77
2021/04/23 00:23:08;;;;;;;7.32;4.93;;;4.10;71.90;;;;;;6224940;28;20136;-77
2021/04/23 00:26:10;;;;;;;5.63;4.57;;;4.10;72.00;;;;;;6224312;28;20519;-77
2021/04/23 00:29:11;;;;;;;9.93;5.10;;;4.00;72.30;;;;;;6224215;28;20041;-77
2021/04/23 00:35:33;;;;;;;9.47;5.27;;;3.90;72.10;;;;;;6224390;28;20050;-77
2021/04/23 00:38:36;;;;;;;22.93;5.50;;;3.80;72.10;;;;;;6224046;28;20128;-76
2021/04/23 00:41:39;;;;;;;9.60;5.70;;;3.80;72.80;;;;;;6224245;28;20533;-77
2021/04/23 00:44:40;;;;;;;13.97;5.13;;;3.70;72.50;;;;;;6208608;28;20129;-78
2021/04/23 00:47:44;;;;;;;10.13;5.23;;;3.70;72.70;;;;;;6222288;28;20140;-76
2021/04/23 00:50:49;;;;;;;9.13;4.90;;;3.70;73.10;;;;;;6222870;28;20052;-77
2021/04/23 00:53:52;;;;;;;10.73;5.83;;;3.60;73.30;;;;;;6220755;28;20614;-77
2021/04/23 00:56:54;;;;;;;8.77;5.47;;;3.60;73.50;;;;;;6197003;28;20134;-78
2021/04/23 00:59:56;;;;;;;11.20;7.10;;;3.50;73.60;;;;;;6197580;28;20532;-77
2021/04/23 01:02:57;;;;;;;7.80;4.43;;;3.50;73.80;;;;;;6198694;28;20145;-77
2021/04/23 01:06:06;;;;;;;11.17;4.70;;;3.50;74.30;;;;;;6198431;28;20129;-78
2021/04/23 01:09:12;;;;;;;8.97;5.77;;;3.40;74.30;;;;;;6198027;28;20551;-75
2021/04/23 01:12:15;;;;;;;8.10;5.70;;;3.40;74.70;;;;;;6198166;28;20181;-75
2021/04/23 01:15:16;;;;;;;6.90;5.47;;;3.40;74.70;;;;;;6199589;28;20054;-75
2021/04/23 01:18:17;;;;;;;11.70;6.00;;;3.30;74.70;;;;;;6198414;28;20133;-75
2021/04/23 01:21:23;;;;;;;6.77;5.43;;;3.20;74.90;;;;;;6198747;28;20181;-76
2021/04/23 01:24:24;;;;;;;6.03;4.73;;;3.10;75.30;;;;;;6198884;28;20052;-75
2021/04/23 01:27:26;;;;;;;6.97;4.20;;;3.00;75.80;;;;;;6198298;28;20137;-74
2021/04/23 01:30:27;;;;;;;10.13;4.57;;;3.00;75.70;;;;;;6199585;28;20082;-77
2021/04/23 01:33:29;;;;;;;16.67;5.30;;;2.90;76.10;;;;;;6199149;28;20070;-76
2021/04/23 01:36:31;;;;;;;7.17;4.40;;;2.90;76.30;;;;;;6199610;28;20057;-76
2021/04/23 01:39:34;;;;;;;8.67;5.07;;;2.80;76.40;;;;;;6198672;28;20137;-76
2021/04/23 01:42:36;;;;;;;12.33;5.87;;;2.80;76.70;;;;;;6199661;28;20050;-77
2021/04/23 01:45:38;;;;;;;9.60;6.57;;;2.70;76.90;;;;;;6199570;28;20051;-76
2021/04/23 01:48:39;;;;;;;6.17;4.47;;;2.70;77.20;;;;;;6225497;28;20054;-76
2021/04/23 01:51:44;;;;;;;13.37;5.87;;;2.70;77.40;;;;;;6230967;28;20099;-77
2021/04/23 01:54:46;;;;;;;10.17;5.30;;;2.60;77.40;;;;;;6230668;28;20042;-76
2021/04/23 01:57:48;;;;;;;7.07;5.33;;;2.60;77.50;;;;;;6228329;28;20058;-77
2021/04/23 02:00:51;;;;;;;6.47;5.10;;;2.60;77.80;;;;;;6230083;28;20300;-77
2021/04/23 02:03:52;;;;;;;10.47;6.30;;;2.50;78.10;;;;;;6230086;28;20034;-76
2021/04/23 02:06:57;;;;;;;8.87;6.63;;;2.50;77.40;;;;;;6230086;28;20046;-78
2021/04/23 02:09:58;;;;;;;15.37;6.00;;;2.50;77.50;;;;;;6228778;28;20034;-76
2021/04/23 02:13:00;;;;;;;9.37;5.83;;;2.50;78.00;;;;;;6227887;28;20077;-77
2021/04/23 02:16:02;;;;;;;24.77;6.10;;;2.50;78.20;;;;;;6212256;28;20070;-75
2021/04/23 02:19:04;;;;;;;7.67;6.10;;;2.40;78.50;;;;;;6198953;28;20085;-75
2021/04/23 02:22:07;;;;;;;11.37;6.97;;;2.40;78.70;;;;;;6199207;28;20078;-76
2021/04/23 02:25:09;;;;;;;7.83;5.70;;;2.40;79.00;;;;;;6198585;28;20125;-76
2021/04/23 02:28:11;;;;;;;8.73;5.60;;;2.40;79.00;;;;;;6197494;28;20066;-78
2021/04/23 02:31:17;;;;;;;8.80;6.63;;;2.40;79.10;;;;;;6198897;28;20054;-76
2021/04/23 02:34:21;;;;;;;8.30;5.63;;;2.30;79.20;;;;;;6198185;28;20134;-77
2021/04/23 02:37:23;;;;;;;7.33;4.67;;;2.20;79.50;;;;;;6197990;28;20519;-76
2021/04/23 02:40:27;;;;;;;13.83;5.90;;;2.20;79.80;;;;;;6197688;28;20729;-76
2021/04/23 02:43:31;;;;;;;7.73;5.67;;;2.20;80.10;;;;;;6239885;22;20081;-76
2021/04/23 02:46:33;;;;;;;10.03;6.30;;;2.10;80.10;;;;;;6246646;28;20565;-76
2021/04/23 02:49:34;;;;;;;8.13;6.50;;;2.00;80.10;;;;;;6245408;28;20567;-76
2021/04/23 02:52:37;;;;;;;10.20;5.50;;;2.10;80.50;;;;;;6246381;28;20128;-76
2021/04/23 02:55:38;;;;;;;14.10;5.77;;;2.00;80.60;;;;;;6246378;28;20148;-76
2021/04/23 02:58:40;;;;;;;10.83;5.80;;;2.00;80.70;;;;;;6246030;28;20137;-76
2021/04/23 03:01:46;;;;;;;13.03;5.97;;;2.10;80.90;;;;;;6246001;28;20077;-76
2021/04/23 03:04:47;;;;;;;9.67;7.00;;;2.00;81.10;;;;;;6246158;28;20494;-76
2021/04/23 03:07:52;;;;;;;8.80;6.33;;;2.10;81.10;;;;;;6245362;28;20095;-76
2021/04/23 03:11:00;;;;;;;8.57;6.10;;;2.00;81.10;;;;;;6258555;28;20133;-78
2021/04/23 03:14:02;;;;;;;9.77;5.80;;;2.00;81.10;;;;;;6258180;28;20465;-78
2021/04/23 03:17:03;;;;;;;15.30;6.30;;;2.00;81.80;;;;;;6258538;28;20072;-78
2021/04/23 03:20:12;;;;;;;10.90;6.73;;;2.00;81.50;;;;;;6257969;28;20052;-78
2021/04/23 03:23:14;;;;;;;7.10;5.57;;;2.00;81.80;;;;;;6265635;28;20049;-79
2021/04/23 03:26:17;;;;;;;12.37;6.13;;;2.00;81.80;;;;;;6265918;28;20053;-78
2021/04/23 03:29:19;;;;;;;8.77;6.80;;;2.00;81.80;;;;;;6266422;28;20049;-78
2021/04/23 03:32:21;;;;;;;10.10;6.23;;;2.10;82.00;;;;;;6263546;28;20076;-77
2021/04/23 03:35:22;;;;;;;10.20;6.27;;;2.10;82.10;;;;;;6262119;28;20064;-78
2021/04/23 03:38:25;;;;;;;10.13;5.50;;;2.20;81.90;;;;;;6265243;28;20132;-78
2021/04/23 03:41:29;;;;;;;6.57;5.50;;;2.30;82.00;;;;;;6267636;28;20110;-78
2021/04/23 03:44:31;;;;;;;9.47;5.47;;;2.30;82.00;;;;;;6264277;28;20069;-77
2021/04/23 03:47:32;;;;;;;7.40;5.33;;;2.50;81.70;;;;;;6258357;28;20084;-78
2021/04/23 03:50:35;;;;;;;12.63;5.67;;;2.70;81.00;;;;;;6262225;28;20049;-78
2021/04/23 03:53:38;;;;;;;11.37;6.00;;;2.70;80.50;;;;;;6262115;28;20065;-77
2021/04/23 03:56:40;;;;;;;6.47;5.00;;;2.70;80.50;;;;;;6262429;28;20189;-77
2021/04/23 03:59:41;;;;;;;9.73;5.83;;;2.60;80.50;;;;;;6263441;28;20071;-78
2021/04/23 04:02:42;;;;;;;13.30;8.37;;;2.60;85.00;;;;;;6259696;28;20113;-77
2021/04/23 04:05:44;;;;;;;10.27;6.33;;;2.70;82.50;;;;;;6259521;28;20180;-78
2021/04/23 04:08:47;;;;;;;8.37;5.83;;;2.60;81.90;;;;;;6258708;28;20048;-77
2021/04/23 04:11:48;;;;;;;7.40;6.13;;;2.50;81.70;;;;;;6259950;28;20045;-77
2021/04/23 04:14:49;;;;;;;7.10;4.53;;;2.40;81.80;;;;;;6261470;28;20056;-78
2021/04/23 04:17:51;;;;;;;12.90;6.90;;;2.40;82.00;;;;;;6260885;28;20046;-78
2021/04/23 04:20:53;;;;;;;10.30;6.47;;;2.30;81.90;;;;;;6262298;28;20095;-78
2021/04/23 04:23:55;;;;;;;10.03;7.13;;;2.30;82.70;;;;;;6259812;28;20068;-78
2021/04/23 04:26:57;;;;;;;9.37;5.70;;;2.20;82.10;;;;;;6263407;28;20073;-78
2021/04/23 04:29:58;;;;;;;9.17;5.60;;;2.20;82.20;;;;;;6256541;28;20041;-78
2021/04/23 04:33:00;;;;;;;15.33;7.13;;;2.10;82.70;;;;;;6256276;28;20052;-77
2021/04/23 04:36:01;;;;;;;12.27;6.10;;;2.10;82.30;;;;;;6257728;28;20041;-77
2021/04/23 04:39:05;;;;;;;7.93;6.20;;;2.10;82.30;;;;;;6256560;28;20526;-78
2021/04/23 04:42:07;;;;;;;8.40;5.70;;;2.10;82.30;;;;;;6254277;28;20125;-77
2021/04/23 04:45:12;;;;;;;11.90;6.30;;;2.10;82.30;;;;;;6254287;28;20079;-78
2021/04/23 04:48:14;;;;;;;8.60;6.30;;;2.20;82.40;;;;;;6259423;28;20041;-78
2021/04/23 04:51:16;;;;;;;8.97;6.13;;;2.30;82.50;;;;;;6255272;28;20088;-77
2021/04/23 04:54:18;;;;;;;10.47;7.07;;;2.40;82.40;;;;;;6258169;28;20598;-78
2021/04/23 04:57:19;;;;;;;15.37;6.83;;;2.50;82.40;;;;;;6258201;28;20045;-78
2021/04/23 05:00:23;;;;;;;11.30;5.07;;;2.60;82.40;;;;;;6255267;28;20193;-78
2021/04/23 05:03:24;;;;;;;16.93;7.77;;;2.80;82.40;;;;;;6257115;28;20052;-78
2021/04/23 05:06:25;;;;;;;15.20;7.97;;;2.90;82.10;;;;;;6258457;28;20136;-78
2021/04/23 05:09:28;;;;;;;10.60;5.87;;;3.10;81.70;;;;;;6251243;28;20129;-76
2021/04/23 05:12:29;;;;;;;11.97;6.33;;;3.30;81.40;;;;;;6247989;28;20052;-76
2021/04/23 05:15:30;;;;;;;9.93;5.00;;;3.50;81.60;;;;;;6248034;28;20110;-76
2021/04/23 05:18:32;;;;;;;8.47;5.67;;;3.70;80.60;;;;;;6248059;28;20136;-76
2021/04/23 05:21:33;;;;;;;8.60;6.40;;;4.00;80.20;;;;;;6247552;28;20156;-76
2021/04/23 05:24:36;;;;;;;7.07;5.60;;;4.20;79.30;;;;;;6248358;28;20045;-76
2021/04/23 05:27:37;;;;;;;9.40;5.03;;;4.50;78.70;;;;;;6247759;28;20056;-76
2021/04/23 05:30:39;;;;;;;17.37;10.40;;;4.80;77.80;;;;;;6247857;28;20049;-77
2021/04/23 05:33:40;;;;;;;15.73;7.95;;;5.10;77.70;;;;;;6247477;28;20478;-76
2021/04/23 05:36:45;;;;;;;8.55;4.70;;;5.30;76.50;;;;;;6247909;28;20079;-76
2021/04/23 05:39:47;;;;;;;7.25;5.65;;;5.60;76.20;;;;;;6246953;28;20187;-76
2021/04/23 05:42:48;;;;;;;10.00;4.97;;;5.90;75.30;;;;;;6247919;28;20049;-76
2021/04/23 05:45:50;;;;;;;18.70;11.60;;;6.10;74.50;;;;;;6247356;28;20041;-76
2021/04/23 05:48:51;;;;;;;13.48;7.22;;;6.40;73.50;;;;;;6246605;28;20045;-76
2021/04/23 05:51:52;;;;;;;10.80;5.38;;;6.70;71.60;;;;;;6246717;28;20065;-76
2021/04/23 05:54:54;;;;;;;11.35;4.78;;;6.90;70.00;;;;;;6247658;28;20123;-76
2021/04/23 05:57:58;;;;;;;12.55;7.85;;;7.20;68.70;;;;;;6245972;28;20666;-76
2021/04/23 06:00:59;;;;;;;10.73;5.47;;;7.30;67.40;;;;;;6245856;28;20076;-76
2021/04/23 06:04:00;;;;;;;11.23;6.03;;;7.50;66.70;;;;;;6239403;28;20073;-76
2021/04/23 06:07:02;;;;;;;12.93;4.18;;;7.70;66.10;;;;;;6241752;28;20173;-76
2021/04/23 06:10:06;;;;;;;7.85;4.78;;;7.80;65.30;;;;;;6245945;28;20048;-76
2021/04/23 06:13:08;;;;;;;14.65;5.68;;;7.90;64.50;;;;;;6242513;28;20070;-76
2021/04/23 06:16:10;;;;;;;13.15;4.35;;;8.20;63.90;;;;;;6222193;28;20124;-76
2021/04/23 06:19:11;;;;;;;8.32;5.15;;;8.40;63.00;;;;;;6222139;28;20081;-76
2021/04/23 06:22:12;;;;;;;7.53;4.50;;;8.50;62.00;;;;;;6222378;28;20172;-76
2021/04/23 06:25:17;;;;;;;16.38;5.97;;;8.60;60.90;;;;;;6221831;28;20133;-76
2021/04/23 06:28:18;;;;;;;10.68;3.95;;;8.70;60.00;;;;;;6221490;28;20091;-76
2021/04/23 06:31:20;;;;;;;7.65;4.32;;;8.70;59.80;;;;;;6222211;28;20081;-76
2021/04/23 06:34:21;;;;;;;16.83;4.85;;;8.90;59.10;;;;;;6221563;28;20426;-76
2021/04/23 06:37:23;;;;;;;8.02;4.25;;;8.90;58.10;;;;;;6221450;28;20264;-76
2021/04/23 06:40:25;;;;;;;11.77;4.80;;;9.00;58.10;;;;;;6221085;28;20053;-76
2021/04/23 06:43:27;;;;;;;11.13;5.45;;;9.10;57.60;;;;;;6221914;28;20056;-76
2021/04/23 06:46:29;;;;;;;8.05;5.40;;;9.40;57.10;;;;;;6222182;28;20050;-78
2021/04/23 06:49:31;;;;;;;8.43;4.47;;;9.60;56.60;;;;;;6221289;28;20108;-76
2021/04/23 06:52:32;;;;;;;10.65;4.43;;;9.80;56.80;;;;;;6221827;28;20050;-76
2021/04/23 06:55:34;;;;;;;11.63;4.90;;;10.30;55.60;;;;;;6221814;28;20054;-76
2021/04/23 06:58:36;;;;;;;14.98;4.45;;;10.70;54.10;;;;;;6221364;28;20174;-76
2021/04/23 07:01:37;;;;;;;8.85;4.07;;;10.80;53.70;;;;;;6221657;28;20131;-76
2021/04/23 07:04:38;;;;;;;10.30;5.68;;;11.10;52.80;;;;;;6221745;28;20140;-76
2021/04/23 07:07:40;;;;;;;6.88;4.78;;;11.40;52.10;;;;;;6221252;28;20050;-76
2021/04/23 07:10:43;;;;;;;10.00;4.13;;;11.60;50.90;;;;;;6222708;28;20042;-75
2021/04/23 07:13:44;;;;;;;13.07;4.30;;;11.70;50.70;;;;;;6226458;28;20533;-75
2021/04/23 07:16:45;;;;;;;8.23;4.03;;;12.00;49.90;;;;;;6226312;28;20114;-76
2021/04/23 07:19:48;;;;;;;8.43;4.47;;;12.10;49.50;;;;;;6225856;28;20065;-75
2021/04/23 07:22:50;;;;;;;10.63;4.88;;;12.00;48.50;;;;;;6226805;28;20053;-75
2021/04/23 07:25:52;;;;;;;18.13;7.25;;;11.70;49.00;;;;;;6225857;28;20073;-75
2021/04/23 07:28:53;;;;;;;11.85;5.13;;;11.70;49.30;;;;;;6225629;28;20124;-75
2021/04/23 07:31:54;;;;;;;8.65;4.22;;;11.70;49.00;;;;;;6226031;28;20385;-75
2021/04/23 07:34:56;;;;;;;8.65;5.05;;;11.80;49.00;;;;;;6226758;28;20053;-75
2021/04/23 07:37:59;;;;;;;11.02;5.18;;;11.80;48.80;;;;;;6225704;28;20563;-75
2021/04/23 07:41:02;;;;;;;11.25;5.38;;;11.90;48.70;;;;;;6225568;28;20045;-75
2021/04/23 07:44:04;;;;;;;12.80;5.07;;;12.30;48.60;;;;;;6225421;28;20095;-75
2021/04/23 07:47:05;;;;;;;13.20;4.68;;;12.50;47.40;;;;;;6225755;28;20086;-75
2021/04/23 07:50:08;;;;;;;12.20;4.78;;;12.60;47.30;;;;;;6225110;28;20049;-75
2021/04/23 07:53:09;;;;;;;10.75;4.60;;;12.90;46.90;;;;;;6226295;28;20702;-75
2021/04/23 07:56:12;;;;;;;10.43;6.00;;;13.10;46.20;;;;;;6226260;28;20129;-75
2021/04/23 07:59:13;;;;;;;10.25;3.97;;;13.30;46.00;;;;;;6226240;28;20085;-75
2021/04/23 08:02:14;;;;;;;17.67;7.50;;;13.50;46.00;;;;;;6225934;28;20474;-75
2021/04/23 08:05:18;;;;;;;13.63;5.00;;;13.90;44.80;;;;;;6225811;28;20516;-75
2021/04/23 08:08:19;;;;;;;14.80;5.05;;;14.00;44.10;;;;;;6224437;28;20100;-76
2021/04/23 08:11:22;;;;;;;9.07;5.07;;;14.10;44.20;;;;;;6225230;28;20046;-75
2021/04/23 08:14:23;;;;;;;10.98;4.97;;;14.30;44.60;;;;;;6241055;28;20045;-75
2021/04/23 08:17:25;;;;;;;9.00;4.53;;;14.60;43.40;;;;;;6248969;28;20566;-75
2021/04/23 08:20:26;;;;;;;10.75;6.13;;;14.90;42.90;;;;;;6248635;28;20076;-75
2021/04/23 08:23:28;;;;;;;9.40;4.82;;;15.10;42.60;;;;;;6248665;28;20081;-75
2021/04/23 08:26:30;;;;;;;14.93;5.07;;;15.10;42.10;;;;;;6249293;28;20084;-75
2021/04/23 08:29:31;;;;;;;6.63;3.97;;;15.40;42.20;;;;;;6248367;28;20124;-75
2021/04/23 08:32:32;;;;;;;11.23;4.82;;;15.70;41.80;;;;;;6248937;28;20141;-75
2021/04/23 08:35:34;;;;;;;10.00;4.85;;;16.10;41.30;;;;;;6248779;28;20136;-75
2021/04/23 08:38:35;;;;;;;14.73;5.95;;;16.50;40.50;;;;;;6248647;28;20133;-75
2021/04/23 08:41:40;;;;;;;14.93;5.13;;;16.50;39.30;;;;;;6248682;28;20072;-75
2021/04/23 08:44:42;;;;;;;10.80;4.75;;;16.30;40.10;;;;;;6263079;22;20057;-75
2021/04/23 08:47:45;;;;;;;7.13;4.63;;;16.50;39.50;;;;;;6248689;28;20053;-75
2021/04/23 08:50:47;;;;;;;12.25;5.43;;;16.50;39.10;;;;;;6249054;28;20081;-75
2021/04/23 08:53:51;;;;;;;14.23;5.07;;;16.80;38.70;;;;;;6248387;28;20474;-75
2021/04/23 08:56:53;;;;;;;15.43;5.75;;;17.00;38.30;;;;;;6248473;28;20128;-75
2021/04/23 08:59:54;;;;;;;9.50;4.85;;;17.30;37.30;;;;;;6247901;28;20521;-74
2021/04/23 09:02:55;;;;;;;8.98;4.93;;;17.30;37.40;;;;;;6249055;28;20050;-75
2021/04/23 09:06:14;;;;;;;13.15;7.05;;;17.20;37.70;;;;;;6248280;28;20128;-75
2021/04/23 09:09:15;;;;;;;16.48;7.78;;;17.00;37.40;;;;;;6247550;28;20461;-75
2021/04/23 09:12:20;;;;;;;10.82;6.00;;;16.90;37.40;;;;;;6247964;28;20049;-75
2021/04/23 09:15:23;;;;;;;9.85;7.40;;;17.10;37.20;;;;;;6248915;28;20183;-77
2021/04/23 09:18:25;;;;;;;14.90;5.75;;;17.40;37.00;;;;;;6247468;28;20424;-75
2021/04/23 09:21:26;;;;;;;14.55;6.95;;;17.70;36.80;;;;;;6247797;28;20514;-76
2021/04/23 09:24:30;;;;;;;12.75;5.10;;;17.80;37.00;;;;;;6247688;28;20137;-75
2021/04/23 09:27:33;;;;;;;10.07;7.15;;;18.00;36.40;;;;;;6251063;28;20081;-75
2021/04/23 09:30:36;;;;;;;9.38;4.80;;;18.10;35.30;;;;;;6247770;28;20047;-77
2021/04/23 09:33:49;;;;;;;13.48;6.90;;;18.00;36.00;;;;;;6246585;28;20657;-75
2021/04/23 09:36:51;;;;;;;10.20;5.43;;;18.20;36.10;;;;;;6246407;28;20049;-76
2021/04/23 09:39:52;;;;;;;16.33;6.03;;;18.40;35.90;;;;;;6244540;28;20196;-75
2021/04/23 09:42:56;;;;;;;7.80;4.70;;;18.70;36.20;;;;;;6247187;28;20140;-75
2021/04/23 09:45:57;;;;;;;11.38;5.88;;;18.60;34.30;;;;;;6247057;28;20046;-74
2021/04/23 09:49:14;;;;;;;14.88;5.57;;;18.10;34.90;;;;;;6246230;28;20124;-75
2021/04/23 09:52:15;;;;;;;8.40;5.35;;;18.00;36.40;;;;;;6246680;28;20068;-75
2021/04/23 09:55:18;;;;;;;8.63;5.43;;;18.20;35.50;;;;;;6247576;28;20084;-76
2021/04/23 09:58:21;;;;;;;11.65;5.63;;;18.60;34.60;;;;;;6246179;28;20569;-74
2021/04/23 10:01:34;;;;;;;15.55;6.03;;;18.50;33.90;;;;;;6246921;28;20041;-75
2021/04/23 10:04:37;;;;;;;18.05;4.95;;;17.80;35.80;;;;;;6246617;28;20118;-75
2021/04/23 10:07:39;;;;;;;16.77;7.25;;;17.80;36.90;;;;;;6250954;28;20073;-75
2021/04/23 10:10:52;;;;;;;12.07;4.30;;;17.90;35.20;;;;;;6247278;28;20052;-76
2021/04/23 10:14:09;;;;;;;12.18;5.22;;;17.70;34.20;;;;;;6246290;28;20132;-75
2021/04/23 10:17:21;;;;;;;10.35;5.90;;;17.80;35.10;;;;;;6246820;28;20099;-77
2021/04/23 10:20:25;;;;;;;9.20;5.55;;;17.90;35.30;;;;;;6246246;28;20053;-76
2021/04/23 10:23:26;;;;;;;11.98;5.90;;;18.20;35.40;;;;;;6246566;28;20364;-76
2021/04/23 10:26:28;;;;;;;17.85;5.63;;;18.50;35.40;;;;;;6247017;28;20491;-76
2021/04/23 10:29:31;;;;;;;13.88;6.80;;;18.90;34.70;;;;;;6246577;28;20124;-76
2021/04/23 10:32:34;;;;;;;10.73;5.93;;;19.10;34.40;;;;;;6245983;28;20172;-77
2021/04/23 10:35:36;;;;;;;10.65;5.82;;;19.40;34.20;;;;;;6247102;28;20107;-77
2021/04/23 10:38:40;;;;;;;7.97;4.80;;;19.40;32.80;;;;;;6245332;28;20049;-77
2021/04/23 10:41:42;;;;;;;11.88;6.00;;;18.90;33.10;;;;;;6248606;28;20418;-76
2021/04/23 10:45:03;;;;;;;11.15;5.10;;;18.60;33.30;;;;;;6246861;28;20052;-77
2021/04/23 10:48:26;;;;;;;12.82;5.60;;;18.30;34.10;;;;;;6251086;28;20061;-77
2021/04/23 10:51:28;;;;;;;11.00;6.45;;;17.80;34.80;;;;;;6251091;28;20105;-77
2021/04/23 10:54:29;;;;;;;16.35;6.85;;;17.70;35.70;;;;;;6251589;28;20144;-77
2021/04/23 10:57:54;;;;;;;9.70;4.75;;;18.30;35.00;;;;;;6250596;28;20060;-77
2021/04/23 11:00:58;;;;;;;11.35;5.72;;;18.90;34.40;;;;;;6250985;28;20522;-76
2021/04/23 11:04:04;;;;;;;10.02;5.53;;;18.70;33.90;;;;;;6250106;28;20075;-77
2021/04/23 11:07:06;;;;;;;13.57;5.10;;;18.50;34.40;;;;;;6254333;28;20085;-78
2021/04/23 11:10:08;;;;;;;9.55;4.68;;;18.60;33.90;;;;;;6257346;28;20055;-78
2021/04/23 11:13:22;;;;;;;8.50;4.55;;;19.00;33.20;;;;;;6257427;28;20583;-78
2021/04/23 11:16:34;;;;;;;12.75;4.35;;;18.90;31.20;;;;;;6257000;28;20103;-77
2021/04/23 11:19:37;;;;;;;9.38;4.10;;;18.80;32.40;;;;;;6260557;28;20214;-79
2021/04/23 11:22:53;;;;;;;9.02;4.93;;;19.20;31.90;;;;;;6261791;28;20057;-78
2021/04/23 11:25:55;;;;;;;7.55;4.18;;;19.60;31.50;;;;;;6265423;28;20048;-77
2021/04/23 11:29:21;;;;;;;8.13;4.60;;;19.50;30.70;;;;;;6268331;28;20045;-78
2021/04/23 11:32:24;;;;;;;8.43;4.88;;;19.40;30.30;;;;;;6259694;28;20486;-78
2021/04/23 11:35:26;;;;;;;15.02;5.32;;;19.00;29.80;;;;;;6266311;28;20489;-78
2021/04/23 11:38:57;;;;;;;13.38;5.45;;;18.90;31.60;;;;;;6264095;28;20068;-78
2021/04/23 11:42:19;;;;;;;4.50;3.45;;;18.70;29.60;;;;;;6254183;28;20154;-77
2021/04/23 11:45:21;;;;;;;11.32;4.68;;;18.70;29.90;;;;;;6251211;28;20050;-77
2021/04/23 11:48:23;;;;;;;15.20;6.57;;;19.10;30.60;;;;;;6257168;28;20107;-77
2021/04/23 11:51:25;;;;;;;8.70;4.80;;;19.20;31.60;;;;;;6262973;28;20092;-77
2021/04/23 11:54:29;;;;;;;10.00;4.10;;;19.10;31.00;;;;;;6255298;28;20045;-77
2021/04/23 11:57:31;;;;;;;10.90;4.72;;;18.80;29.30;;;;;;6252105;28;20160;-77
2021/04/23 12:00:33;;;;;;;12.70;4.35;;;18.80;30.60;;;;;;6255878;28;20050;-78
2021/04/23 12:03:35;;;;;;;11.38;5.20;;;19.20;29.80;;;;;;6253995;28;20077;-77
2021/04/23 12:06:37;;;;;;;5.72;3.53;;;19.50;29.60;;;;;;6257268;28;20085;-77
2021/04/23 12:09:38;;;;;;;7.90;3.70;;;19.60;30.00;;;;;;6255505;28;20533;-78
2021/04/23 12:12:41;;;;;;;8.35;3.90;;;19.70;27.90;;;;;;6258608;28;20049;-78
2021/04/23 12:15:44;;;;;;;12.48;4.43;;;19.90;27.40;;;;;;6281075;28;20049;-80
2021/04/23 12:18:47;;;;;;;4.90;3.28;;;20.20;27.70;;;;;;6282491;28;20095;-77
2021/04/23 12:21:54;;;;;;;10.48;4.15;;;20.50;27.50;;;;;;6282567;28;20041;-77
2021/04/23 12:25:16;;;;;;;8.63;4.15;;;20.60;26.80;;;;;;6283509;28;20075;-77
2021/04/23 12:28:32;;;;;;;8.20;3.92;;;20.30;27.70;;;;;;6279587;28;20045;-77
2021/04/23 12:31:40;;;;;;;11.43;5.25;;;20.20;28.40;;;;;;6277561;28;20136;-78
2021/04/23 12:34:45;;;;;;;13.13;4.93;;;20.40;28.50;;;;;;6278536;28;20084;-79
2021/04/23 12:37:47;;;;;;;8.57;5.03;;;20.70;28.80;;;;;;6278182;28;20048;-78
2021/04/23 12:40:49;;;;;;;9.80;5.88;;;20.80;29.30;;;;;;6276622;28;20049;-77
2021/04/23 12:43:52;;;;;;;12.13;4.13;;;21.00;28.80;;;;;;6274728;28;20069;-78
2021/04/23 12:46:55;;;;;;;4.93;3.35;;;21.10;28.30;;;;;;6278170;28;20413;-79
2021/04/23 12:49:58;;;;;;;5.90;3.00;;;21.20;26.10;;;;;;6280013;28;20123;-77
2021/04/23 12:52:59;;;;;;;11.32;3.42;;;20.60;27.30;;;;;;6285108;28;20049;-82
2021/04/23 12:56:01;;;;;;;14.75;7.05;;;20.60;27.00;;;;;;6282204;28;20148;-77
2021/04/23 12:59:03;;;;;;;12.25;5.03;;;21.00;28.70;;;;;;6285031;28;20419;-77
2021/04/23 13:02:05;;;;;;;8.80;4.35;;;21.30;28.00;;;;;;6277629;28;20049;-79
2021/04/23 13:05:10;;;;;;;4.72;3.33;;;21.10;26.40;;;;;;6285669;28;20254;-79
2021/04/23 13:08:19;;;;;;;6.10;3.28;;;21.00;26.50;;;;;;6284167;28;20048;-79
2021/04/23 13:11:24;;;;;;;8.90;3.33;;;20.90;26.00;;;;;;6285530;28;20049;-79
2021/04/23 13:14:25;;;;;;;7.13;3.30;;;21.00;25.50;;;;;;6264580;28;20214;-80
2021/04/23 13:17:39;;;;;;;8.50;3.17;;;21.20;25.90;;;;;;6262981;28;20049;-79
2021/04/23 13:20:49;;;;;;;7.57;3.90;;;21.10;25.90;;;;;;6260239;28;20053;-79
2021/04/23 13:23:51;;;;;;;8.05;3.88;;;21.10;26.90;;;;;;6259264;28;20080;-78
2021/04/23 13:26:52;;;;;;;9.88;4.97;;;21.10;26.90;;;;;;6255662;28;20053;-79
2021/04/23 13:29:53;;;;;;;11.15;5.00;;;21.20;27.10;;;;;;6253703;28;20048;-77
2021/04/23 13:32:57;;;;;;;9.73;5.20;;;21.20;27.90;;;;;;6254618;28;20132;-77
2021/04/23 13:36:14;;;;;;;7.63;5.45;;;21.50;27.80;;;;;;6254486;28;20065;-78
2021/04/23 13:39:15;;;;;;;9.10;5.28;;;21.70;28.00;;;;;;6262654;28;20050;-78
2021/04/23 13:42:24;;;;;;;7.35;4.93;;;21.90;28.10;;;;;;6257085;28;20050;-77
2021/04/23 13:45:25;;;;;;;13.23;4.60;;;22.20;28.10;;;;;;6250874;28;20133;-77
2021/04/23 13:48:28;;;;;;;9.35;6.95;;;22.30;28.10;;;;;;6251461;28;20128;-78
2021/04/23 13:51:32;;;;;;;30.25;23.38;;;22.40;27.80;;;;;;6256337;28;20048;-79
2021/04/23 13:54:37;;;;;;;11.52;5.22;;;22.50;27.50;;;;;;6252824;28;20053;-77
2021/04/23 13:57:38;;;;;;;9.02;4.05;;;22.40;27.10;;;;;;6253096;28;20825;-77
2021/04/23 14:00:54;;;;;;;5.72;4.13;;;22.30;26.10;;;;;;6255003;28;20120;-78
2021/04/23 14:03:56;;;;;;;6.32;3.90;;;22.10;25.80;;;;;;6272872;28;20025;-77
2021/04/23 14:07:00;;;;;;;5.97;4.35;;;21.80;26.30;;;;;;6279531;28;20069;-77
2021/04/23 14:10:01;;;;;;;7.40;4.97;;;21.50;27.20;;;;;;6277778;28;20045;-78
2021/04/23 14:13:03;;;;;;;8.32;4.88;;;21.50;27.90;;;;;;6277630;28;20033;-77
2021/04/23 14:16:05;;;;;;;10.50;4.97;;;21.30;27.30;;;;;;6277064;28;20049;-78
2021/04/23 14:19:07;;;;;;;9.13;4.97;;;21.00;27.50;;;;;;6277924;28;20029;-78
2021/04/23 14:22:12;;;;;;;8.95;4.28;;;21.20;27.50;;;;;;6278099;28;20044;-78
2021/04/23 14:25:13;;;;;;;9.88;5.80;;;21.40;27.50;;;;;;6277152;28;20053;-79
2021/04/23 14:28:15;;;;;;;10.75;5.60;;;21.60;27.80;;;;;;6261909;28;20041;-77
2021/04/23 14:31:16;;;;;;;6.75;5.43;;;21.90;27.70;;;;;;6250313;28;20061;-78
2021/04/23 14:34:18;;;;;;;6.20;5.00;;;22.10;27.40;;;;;;6249261;28;20100;-78
2021/04/23 14:37:21;;;;;;;8.35;5.13;;;22.30;27.20;;;;;;6250176;28;20050;-79
2021/04/23 14:40:22;;;;;;;9.00;6.45;;;22.40;27.20;;;;;;6251597;28;20043;-78
2021/04/23 14:43:24;;;;;;;9.02;4.72;;;22.50;27.00;;;;;;6251316;28;20076;-79
2021/04/23 14:46:25;;;;;;;9.48;4.95;;;22.60;26.80;;;;;;6248855;28;20050;-79
2021/04/23 14:49:27;;;;;;;8.63;4.80;;;22.20;26.60;;;;;;6249683;28;20159;-79
2021/04/23 14:52:30;;;;;;;8.70;5.32;;;21.90;26.80;;;;;;6251799;28;20041;-79
2021/04/23 14:55:31;;;;;;;7.88;4.15;;;21.90;27.20;;;;;;6250934;28;20098;-79
2021/04/23 14:58:33;;;;;;;11.95;5.55;;;22.10;27.30;;;;;;6232185;28;20049;-80
2021/04/23 15:01:35;;;;;;;7.80;5.13;;;22.10;27.70;;;;;;6259783;28;20045;-79
2021/04/23 15:04:36;;;;;;;8.85;6.05;;;22.10;27.70;;;;;;6274955;28;20595;-80
2021/04/23 15:07:38;;;;;;;9.57;6.30;;;22.20;27.60;;;;;;6276662;28;20615;-78
2021/04/23 15:10:40;;;;;;;13.55;5.60;;;21.80;27.60;;;;;;6276314;28;20079;-78
2021/04/23 15:13:42;;;;;;;7.95;4.47;;;21.60;27.90;;;;;;6276032;28;20049;-79
2021/04/23 15:16:43;;;;;;;11.48;5.97;;;21.50;28.10;;;;;;6277315;28;20131;-79
2021/04/23 15:19:44;;;;;;;12.00;4.65;;;21.70;28.30;;;;;;6275585;28;20083;-78
2021/04/23 15:22:47;;;;;;;11.95;4.53;;;21.70;27.50;;;;;;6276833;28;20052;-79
2021/04/23 15:25:50;;;;;;;6.53;4.50;;;21.40;27.90;;;;;;6276907;28;20113;-79
2021/04/23 15:28:52;;;;;;;13.57;5.80;;;21.30;28.10;;;;;;6276169;28;20577;-78
2021/04/23 15:31:53;;;;;;;10.38;5.97;;;21.20;28.30;;;;;;6287200;28;20070;-78
2021/04/23 15:34:55;;;;;;;9.70;5.47;;;21.20;28.10;;;;;;6291829;28;20080;-77
2021/04/23 15:37:57;;;;;;;8.23;5.85;;;21.20;28.20;;;;;;6291318;28;20045;-78
2021/04/23 15:40:58;;;;;;;10.77;6.65;;;21.20;28.30;;;;;;6290484;28;20111;-77
2021/04/23 15:44:00;;;;;;;9.30;5.13;;;21.00;28.50;;;;;;6283861;28;20532;-77
2021/04/23 15:47:01;;;;;;;10.68;5.15;;;20.80;29.00;;;;;;6286296;28;20652;-79
2021/04/23 15:50:03;;;;;;;8.90;5.45;;;20.60;28.80;;;;;;6288015;28;20467;-78
2021/04/23 15:53:06;;;;;;;9.80;5.93;;;20.40;28.90;;;;;;6289597;28;20131;-77
2021/04/23 15:56:07;;;;;;;11.00;5.53;;;20.30;29.10;;;;;;6281955;28;20057;-78